Latest Weather Observations for Mount William

IDV60801

Issued at 2:05 pm EST Sunday 20 April 2014 (issued every 30 minutes, with the page automatically refreshed every 10 minutes)

About weather observations | Map of weather stations | Latest weather observations for VIC | Other Formats
Station Details ID: 079103 Name: MOUNT WILLIAM Lat: -37.30 Lon: 142.60 Height: 1150.0 m
Data from the previous 72 hours. | See also: Recent months at Mount William
Date/Time
EST
Temp
°C
App
Temp
°C
Dew
Point
Rel
Hum
%
Delta-T
°C
Wind Press
QNH
hPa
Press
MSL
hPa
Rain
since 9 am
mm
Dir
 
Spd
km/h
Gust
km/h
Spd
kts
Gust
kts
20/02:00pm 9.3 5.1 3.7 68 2.6 W 15 22 8 12 - - 0.0
20/01:30pm 8.2 4.4 4.0 75 2.0 W 13 26 7 14 - - 0.0
20/01:00pm 9.2 5.9 4.8 74 2.1 W 11 22 6 12 - - 0.0
20/12:30pm 7.6 3.1 4.0 78 1.7 W 17 26 9 14 - - 0.0
20/12:00pm 8.8 5.5 4.8 76 1.9 WSW 11 20 6 11 - - 0.0
20/11:30am 7.6 3.7 3.6 76 1.8 W 13 24 7 13 - - 0.0
20/11:00am 7.4 3.9 3.3 75 1.9 W 11 22 6 12 - - 0.0
20/10:30am 7.0 3.5 3.3 77 1.7 WNW 11 19 6 10 - - 0.0
20/10:00am 7.2 3.7 3.6 78 1.6 WNW 11 19 6 10 - - 0.0
20/09:30am 6.0 2.0 2.8 80 1.4 WNW 13 20 7 11 - - 0.0
20/09:00am 5.8 1.0 2.8 81 1.3 WNW 17 24 9 13 - - 0.0
20/08:30am 4.7 0.3 2.6 86 0.9 WNW 15 26 8 14 - - 0.0
20/08:00am 4.0 -0.1 2.2 88 0.8 W 13 22 7 12 - - 0.0
20/07:30am 3.9 -0.6 2.3 89 0.7 W 15 24 8 13 - - 0.0
20/07:00am 3.7 -1.2 2.1 89 0.7 W 17 28 9 15 - - 0.0
20/06:30am 3.9 -1.3 2.4 90 0.6 W 19 26 10 14 - - 0.0
20/06:00am 3.9 -0.9 2.6 91 0.6 W 17 24 9 13 - - 0.0
20/05:30am 3.9 -0.5 2.6 91 0.6 W 15 22 8 12 - - 0.0
20/05:00am 4.2 -1.0 2.6 89 0.7 W 19 26 10 14 - - 0.0
20/04:30am 4.1 -0.3 2.9 92 0.5 W 15 20 8 11 - - 0.0
20/04:00am 4.3 -0.1 2.8 90 0.7 W 15 26 8 14 - - 0.0
20/03:30am 4.5 -0.3 2.5 87 0.9 W 17 28 9 15 - - 0.0
20/03:00am 4.5 -0.7 2.2 85 1.0 WSW 19 32 10 17 - - 0.0
20/02:30am 4.4 -0.1 2.1 85 1.0 WSW 15 26 8 14 - - 0.0
20/02:00am 4.3 0.2 2.2 86 0.9 W 13 20 7 11 - - 0.0
20/01:30am 4.3 0.1 1.8 84 1.1 W 13 20 7 11 - - 0.0
20/01:00am 4.2 0.6 2.7 90 0.7 W 11 17 6 9 - - 0.0
20/12:30am 4.3 0.7 3.0 91 0.6 W 11 13 6 7 - - 0.0
20/12:00am 4.3 0.3 2.7 89 0.7 W 13 17 7 9 - - 0.0
 
Date/Time
EST
Temp
°C
App
Temp
°C
Dew
Point
Rel
Hum
%
Delta-T
°C
Wind Press
QNH
hPa
Press
MSL
hPa
Rain
since 9 am
mm
Dir
 
Spd
km/h
Gust
km/h
Spd
kts
Gust
kts
19/11:30pm 4.5 0.8 2.4 86 0.9 WNW 11 15 6 8 - - 0.0
19/11:00pm 4.5 1.2 2.2 85 1.0 WNW 9 19 5 10 - - 0.0
19/10:30pm 4.6 1.6 2.3 85 1.0 NW 7 11 4 6 - - 0.0
19/10:00pm 4.7 1.3 2.1 83 1.1 NW 9 15 5 8 - - 0.0
19/09:30pm 4.6 1.6 2.0 83 1.1 WNW 7 17 4 9 - - 0.0
19/09:00pm 4.7 2.3 2.1 83 1.1 NNW 4 6 2 3 - - 0.0
19/08:30pm 4.7 2.7 2.4 85 1.0 NNW 2 4 1 2 - - 0.0
19/08:00pm 4.7 3.1 2.4 85 1.0 CALM 0 0 0 0 - - 0.0
19/07:30pm 4.8 2.8 2.3 84 1.1 W 2 7 1 4 - - 0.0
19/07:00pm 4.7 2.3 2.4 85 1.0 W 4 7 2 4 - - 0.0
19/06:30pm 4.7 2.1 3.0 89 0.8 W 6 7 3 4 - - 0.0
19/06:00pm 4.8 2.6 3.5 91 0.6 W 4 7 2 4 - - 0.0
19/05:30pm 5.1 3.3 3.3 88 0.8 NNW 2 6 1 3 - - 0.0
19/05:00pm 5.2 3.2 2.2 81 1.3 W 2 4 1 2 - - 0.0
19/04:30pm 5.3 3.0 2.7 83 1.1 W 4 9 2 5 - - 0.0
19/04:00pm 5.5 3.3 3.5 87 0.9 SW 4 6 2 3 - - 0.0
19/03:30pm 5.5 2.7 3.0 84 1.1 SW 7 13 4 7 - - 0.0
19/03:00pm 6.0 3.2 3.2 82 1.3 WSW 7 11 4 6 - - 0.0
19/02:30pm 5.9 3.1 3.4 84 1.1 SW 7 13 4 7 - - 0.0
19/02:00pm 5.8 3.2 3.1 83 1.2 SSW 6 9 3 5 - - 0.0
19/01:30pm 5.8 3.0 3.3 84 1.1 SW 7 13 4 7 - - 0.0
19/01:00pm 4.8 2.3 3.9 94 0.4 WSW 6 13 3 7 - - 0.0
19/12:30pm 5.6 3.4 3.6 87 0.9 WSW 4 9 2 5 - - 0.0
19/12:00pm 4.9 2.2 3.7 92 0.5 WSW 7 13 4 7 - - 0.0
19/11:30am 5.0 2.5 4.0 93 0.5 WSW 6 13 3 7 - - 0.0
19/11:00am 5.2 2.6 4.2 93 0.5 WSW 7 11 4 6 - - 0.0
19/10:30am 4.3 1.5 3.0 91 0.6 WSW 7 19 4 10 - - 0.0
19/10:00am 3.7 -0.3 2.7 93 0.4 SW 13 24 7 13 - - 0.0
19/09:30am 3.9 1.1 3.0 94 0.4 SW 7 17 4 9 - - 0.0
19/09:00am 3.8 0.9 2.6 92 0.5 SSW 7 13 4 7 - - 1.4
19/08:30am 3.5 -0.2 2.3 92 0.5 SW 11 19 6 10 - - 1.4
19/08:00am 3.3 -0.4 2.6 95 0.3 SW 11 19 6 10 - - 1.4
19/07:30am 3.1 -1.8 1.9 92 0.5 SW 17 24 9 13 - - 1.4
19/07:00am 3.0 -1.2 1.4 89 0.7 SW 13 28 7 15 - - 1.4
19/06:30am 3.0 -2.3 1.8 92 0.5 SW 19 30 10 16 - - 1.4
19/06:00am 3.1 -1.4 2.1 93 0.4 SW 15 28 8 15 - - 1.4
19/05:30am 3.2 -2.0 2.3 94 0.4 SSW 19 28 10 15 - - 1.4
19/05:00am 3.3 -1.5 2.6 95 0.3 SSW 17 30 9 16 - - 1.4
19/04:30am 3.3 -2.5 2.1 92 0.5 SW 22 32 12 17 - - 1.4
19/04:00am 3.3 -2.2 1.8 90 0.6 SSW 20 37 11 20 - - 1.4
19/03:30am 3.3 -2.1 2.3 93 0.4 SSW 20 35 11 19 - - 1.4
19/03:00am 3.4 -2.3 3.1 98 0.1 SW 22 32 12 17 - - 1.4
19/02:30am 3.3 -2.8 2.6 95 0.3 SSW 24 41 13 22 - - 1.4
19/02:00am 3.4 -2.8 2.4 93 0.4 SW 24 39 13 21 - - 1.4
19/01:30am 3.3 -3.2 2.4 94 0.4 SW 26 41 14 22 - - 1.4
19/01:00am 3.3 -2.3 3.2 99 0.0 SW 22 37 12 20 - - 1.4
19/12:30am 3.5 -4.0 3.4 99 0.0 SW 32 44 17 24 - - 1.4
19/12:00am 3.3 -3.6 2.7 96 0.3 SSW 28 37 15 20 - - 1.4
 
Date/Time
EST
Temp
°C
App
Temp
°C
Dew
Point
Rel
Hum
%
Delta-T
°C
Wind Press
QNH
hPa
Press
MSL
hPa
Rain
since 9 am
mm
Dir
 
Spd
km/h
Gust
km/h
Spd
kts
Gust
kts
18/11:30pm 3.4 -3.8 3.0 97 0.2 SSW 30 43 16 23 - - 1.4
18/11:00pm 3.4 -3.4 3.3 99 0.0 SSW 28 39 15 21 - - 1.4
18/10:30pm 3.6 -4.1 3.3 98 0.1 SSW 33 48 18 26 - - 1.4
18/10:21pm 3.4 -4.4 3.1 98 0.1 SSW 33 54 18 29 - - 1.4
18/10:00pm 3.2 -3.7 2.8 97 0.2 SW 28 43 15 23 - - 1.4
18/09:30pm 3.3 -4.3 2.7 96 0.3 SW 32 46 17 25 - - 1.4
18/09:00pm 3.4 -4.4 3.0 97 0.2 SW 33 44 18 24 - - 1.4
18/08:30pm 3.5 -4.1 2.6 94 0.4 SW 32 43 17 23 - - 1.4
18/08:00pm 3.7 -3.9 2.7 93 0.4 SW 32 46 17 25 - - 1.4
18/07:32pm 3.9 -3.4 2.4 90 0.6 SW 30 48 16 26 - - 1.4
18/07:30pm 3.9 -3.0 2.4 90 0.6 SW 28 43 15 23 - - 1.4
18/07:26pm 3.9 -3.0 2.4 90 0.6 SW 28 46 15 25 - - 1.4
18/07:00pm 4.1 -2.9 2.0 86 0.9 SW 28 43 15 23 - - 1.4
18/06:38pm 4.4 -2.7 1.6 82 1.2 SW 28 46 15 25 - - 1.4
18/06:30pm 4.7 -2.8 1.4 79 1.4 SW 30 46 16 25 - - 1.4
18/06:00pm 5.2 0.2 3.5 89 0.8 SW 19 35 10 19 - - 1.4
18/05:30pm 5.4 -0.2 3.7 89 0.8 SW 22 35 12 19 - - 1.4
18/05:00pm 5.6 -1.1 3.6 87 0.9 SW 28 43 15 23 - - 1.4
18/04:30pm 6.8 -0.6 2.1 72 2.1 SW 30 43 16 23 - - 1.4
18/04:00pm 8.4 3.2 2.2 65 2.8 WSW 19 33 10 18 - - 1.4
18/03:33pm 7.5 0.7 3.2 74 2.0 SW 28 50 15 27 - - 1.4
18/03:30pm 7.5 1.5 3.6 76 1.8 SW 24 43 13 23 - - 1.4
18/03:00pm 7.4 1.4 3.5 76 1.8 SW 24 43 13 23 - - 1.4
18/02:30pm 6.4 -1.2 3.9 84 1.1 SW 33 50 18 27 - - 1.4
18/02:00pm 7.5 2.7 4.8 83 1.3 WSW 19 37 10 20 - - 1.4
18/01:30pm 6.9 2.8 4.2 83 1.3 WSW 15 32 8 17 - - 1.4
18/01:00pm 7.5 1.4 4.8 83 1.3 SW 26 44 14 24 - - 1.4
18/12:30pm 7.0 2.3 5.2 88 0.9 WSW 19 39 10 21 - - 1.4
18/12:04pm 6.5 0.3 6.1 97 0.2 SW 28 48 15 26 - - 1.4
18/12:00pm 6.7 1.4 6.6 99 0.0 WSW 24 46 13 25 - - 1.4
18/11:30am 5.8 0.3 5.7 99 0.0 SW 24 44 13 24 - - 1.4
18/11:16am 5.8 -0.5 5.7 99 0.0 SW 28 48 15 26 - - 1.4
18/11:00am 5.6 0.0 5.5 99 0.0 SW 24 39 13 21 - - 1.4
18/10:30am 5.8 -0.9 5.7 99 0.0 SW 30 52 16 28 - - 1.4
18/10:21am 6.0 -0.3 5.9 99 0.0 SW 28 50 15 27 - - 1.4
18/10:00am 6.4 1.4 6.3 99 0.0 SW 22 44 12 24 - - 1.4
18/09:30am 7.5 2.3 7.4 99 0.1 WSW 24 48 13 26 - - 1.2
18/09:09am 8.2 2.4 8.1 99 0.1 WSW 28 61 15 33 - - 0.2
18/09:00am 8.3 3.7 8.2 99 0.1 WSW 22 48 12 26 - - 2.8
18/08:30am 8.0 3.7 7.9 99 0.1 WSW 20 44 11 24 - - 1.0
18/08:00am 7.8 2.7 7.7 99 0.1 WSW 24 35 13 19 - - 1.0
18/07:30am 7.8 3.5 7.7 99 0.1 WSW 20 39 11 21 - - 1.0
18/07:19am 8.0 2.2 7.9 99 0.1 WSW 28 52 15 28 - - 1.0
18/07:00am 8.2 4.0 8.1 99 0.1 WSW 20 44 11 24 - - 1.0
18/06:30am 8.5 4.5 8.4 99 0.1 W 19 30 10 16 - - 0.0
18/06:00am 8.5 3.6 8.4 99 0.1 W 24 44 13 24 - - 0.0
18/05:30am 8.6 4.1 8.5 99 0.1 W 22 33 12 18 - - 0.0
18/05:00am 8.6 4.7 8.5 99 0.1 WSW 19 32 10 17 - - 0.0
18/04:30am 8.7 3.8 8.6 99 0.1 WSW 24 41 13 22 - - 0.0
18/04:00am 8.7 3.0 8.4 98 0.2 WSW 28 46 15 25 - - 0.0
18/03:40am 8.8 2.3 8.0 95 0.4 WSW 32 52 17 28 - - 0.0
18/03:30am 8.7 2.9 7.9 95 0.4 WSW 28 43 15 23 - - 0.0
18/03:07am 8.7 2.5 7.9 95 0.4 WSW 30 48 16 26 - - 0.0
18/03:00am 8.7 2.9 7.8 94 0.5 WSW 28 44 15 24 - - 0.0
18/02:30am 8.8 2.4 7.1 89 0.9 WSW 30 41 16 22 - - 0.0
18/02:00am 8.6 1.4 7.5 93 0.6 WSW 35 50 19 27 - - 0.0
18/01:30am 8.8 1.9 7.4 91 0.7 WSW 33 54 18 29 - - 0.0
18/01:00am 8.2 1.2 6.8 91 0.7 WSW 33 50 18 27 - - 0.0
18/12:30am 8.1 1.2 6.4 89 0.8 WSW 32 44 17 24 - - 0.0
18/12:00am 8.2 2.1 6.5 89 0.8 W 28 33 15 18 - - 0.0
 
Date/Time
EST
Temp
°C
App
Temp
°C
Dew
Point
Rel
Hum
%
Delta-T
°C
Wind Press
QNH
hPa
Press
MSL
hPa
Rain
since 9 am
mm
Dir
 
Spd
km/h
Gust
km/h
Spd
kts
Gust
kts
17/11:30pm 8.0 3.5 6.9 93 0.5 W 20 26 11 14 - - 0.0
17/11:00pm 8.2 4.2 6.8 91 0.7 W 17 26 9 14 - - 0.0
17/10:30pm 9.1 4.6 7.1 87 1.0 W 20 26 11 14 - - 0.0
17/10:00pm 9.7 4.7 6.6 81 1.5 WNW 22 28 12 15 - - 0.0
17/09:30pm 9.3 5.2 7.7 90 0.8 W 19 26 10 14 - - 0.0
17/09:00pm 9.2 4.7 8.6 96 0.3 WSW 22 30 12 16 - - 0.0
17/08:30pm 9.8 6.3 7.4 85 1.2 SW 15 22 8 12 - - 0.0
17/08:00pm 10.4 6.4 6.7 78 1.9 W 17 20 9 11 - - 0.0
17/07:30pm 10.7 6.7 6.5 75 2.1 W 17 22 9 12 - - 0.0
17/07:00pm 11.0 7.3 6.4 73 2.3 W 15 20 8 11 - - 0.0
17/06:30pm 11.3 7.2 6.2 71 2.6 W 17 24 9 13 - - 0.0
17/06:00pm 11.1 7.8 6.5 73 2.3 W 13 19 7 10 - - 0.0
17/05:30pm 11.7 8.0 6.4 70 2.7 W 15 20 8 11 - - 0.0
17/05:00pm 12.3 9.1 6.8 69 2.8 W 13 20 7 11 - - 0.0
17/04:30pm 12.9 8.8 6.0 63 3.5 W 17 22 9 12 - - 0.0
17/04:00pm 13.5 10.1 6.1 61 3.8 WNW 13 20 7 11 - - 0.0
17/03:30pm 14.8 12.2 5.9 55 4.5 WNW 9 17 5 9 - - 0.0
17/03:00pm 14.5 10.7 5.6 55 4.5 WNW 15 20 8 11 - - 0.0
17/02:30pm 15.2 12.2 6.0 54 4.7 WNW 11 20 6 11 - - 0.0

Other Formats:

Comma delimited format used in spreadsheet applications
http://www.bom.gov.au/fwo/IDV60801/IDV60801.94833.axf

JavaScript Object Notation format (JSON) in row-major order
http://www.bom.gov.au/fwo/IDV60801/IDV60801.94833.json